Time;durP1;ratioP1;P1;durP2;ratioP2;P2;SDS_P1;SDS_P2;PMS_P1;PMS_P2;Temp;Humidity;BMP_temperature;BMP_pressure;BME280_temperature;BME280_humidity;BME280_pressure;Samples;Min_cycle;Max_cycle;Signal;HPM_P1;HPM_P2
2024/01/01 00:01:40;;;;;;;7.10;3.90;;;;;;;5.16;70.97;98553.01;105668;1256;61108;-27
2024/01/01 00:04:08;;;;;;;4.90;3.30;;;;;;;5.27;70.08;98557.27;105671;1253;73625;-27
2024/01/01 00:06:36;;;;;;;6.40;3.30;;;;;;;5.14;69.78;98551.57;105741;1253;74229;-27
2024/01/01 00:09:03;;;;;;;7.00;3.60;;;;;;;4.90;70.38;98551.23;105768;1253;72754;-27
2024/01/01 00:11:30;;;;;;;4.60;3.60;;;;;;;4.71;70.81;98547.82;105822;1253;61038;-27
2024/01/01 00:13:57;;;;;;;4.50;2.70;;;;;;;4.54;71.36;98549.12;105604;1254;61071;-27
2024/01/01 00:16:24;;;;;;;6.80;3.70;;;;;;;4.34;71.94;98550.55;105636;1253;73919;-27
2024/01/01 00:18:51;;;;;;;5.70;3.00;;;;;;;4.17;72.71;98547.33;105899;1254;74404;-27
2024/01/01 00:21:18;;;;;;;4.00;2.20;;;;;;;4.62;72.33;98539.30;105707;1253;73272;-27
2024/01/01 00:23:45;;;;;;;5.30;3.10;;;;;;;5.05;70.77;98538.58;105627;1253;61108;-27
2024/01/01 00:26:13;;;;;;;7.90;3.30;;;;;;;5.11;70.18;98534.52;105919;1254;61132;-29
2024/01/01 00:28:40;;;;;;;5.80;3.20;;;;;;;4.98;70.13;98533.52;105934;1256;72430;-27
2024/01/01 00:31:07;;;;;;;6.20;3.70;;;;;;;4.75;70.92;98531.77;105888;1253;74344;-27
2024/01/01 00:33:34;;;;;;;7.10;3.60;;;;;;;4.57;71.47;98521.94;105904;1256;72650;-27
2024/01/01 00:36:01;;;;;;;7.00;4.50;;;;;;;4.29;72.47;98520.44;105792;1251;61096;-27
2024/01/01 00:38:28;;;;;;;5.00;2.80;;;;;;;4.12;73.27;98513.23;105910;1256;61154;-27
2024/01/01 00:40:55;;;;;;;6.00;3.90;;;;;;;4.67;72.19;98508.85;105949;1254;73815;-27
2024/01/01 00:43:22;;;;;;;5.60;3.70;;;;;;;5.01;70.87;98505.09;105889;1253;74128;-26
2024/01/01 00:45:49;;;;;;;5.30;3.40;;;;;;;5.02;70.49;98503.52;105916;1252;72755;-27
2024/01/01 00:48:16;;;;;;;5.60;3.70;;;;;;;4.85;70.67;98498.60;105890;1253;62822;-27
2024/01/01 00:50:44;;;;;;;8.70;3.70;;;;;;;4.62;71.42;98499.88;105772;1253;61254;-27
2024/01/01 00:53:11;;;;;;;5.70;2.80;;;;;;;4.42;71.83;98491.05;105947;1253;73923;-27
2024/01/01 00:55:38;;;;;;;7.40;3.60;;;;;;;4.20;72.66;98490.77;106004;1254;74321;-27
2024/01/01 00:58:08;;;;;;;6.20;3.40;;;;;;;4.24;73.29;98483.58;105962;1253;72402;-27
2024/01/01 01:00:35;;;;;;;5.20;3.20;;;;;;;4.85;71.59;98480.00;105917;1252;61436;-26
2024/01/01 01:03:02;;;;;;;5.00;3.40;;;;;;;5.08;70.39;98472.48;105691;1257;61188;-27
2024/01/01 01:05:30;;;;;;;5.40;3.20;;;;;;;4.97;70.35;98463.03;105910;1254;73788;-27
2024/01/01 01:07:58;;;;;;;6.60;4.00;;;;;;;4.74;70.58;98457.55;105681;1254;74129;-27
2024/01/01 01:10:25;;;;;;;8.40;3.50;;;;;;;4.51;71.40;98450.77;105761;1253;72987;-27
2024/01/01 01:12:55;;;;;;;7.00;3.50;;;;;;;4.32;71.87;98445.10;105649;1253;61676;-27
2024/01/01 01:15:24;;;;;;;5.10;2.70;;;;;;;4.12;72.99;98441.27;105706;1256;61166;-27
2024/01/01 01:17:51;;;;;;;4.10;2.70;;;;;;;4.59;72.37;98440.64;105546;1253;72680;-27
2024/01/01 01:20:19;;;;;;;6.20;4.10;;;;;;;5.09;70.49;98438.16;105898;1253;74299;-26
2024/01/01 01:22:46;;;;;;;4.50;2.60;;;;;;;5.08;69.61;98432.88;105971;1254;72688;-26
2024/01/01 01:25:12;;;;;;;4.70;2.80;;;;;;;4.88;69.93;98425.80;105922;1253;61081;-27
2024/01/01 01:27:42;;;;;;;6.60;4.00;;;;;;;4.63;70.73;98434.84;105803;1254;61049;-27
2024/01/01 01:30:10;;;;;;;6.30;3.80;;;;;;;4.46;71.51;98441.98;105697;1253;74297;-27
2024/01/01 01:32:37;;;;;;;3.60;2.90;;;;;;;4.29;72.17;98443.11;105645;1253;74299;-27
2024/01/01 01:35:05;;;;;;;8.10;3.40;;;;;;;4.13;73.10;98437.94;105747;1253;73204;-27
2024/01/01 01:37:32;;;;;;;4.70;3.00;;;;;;;4.66;72.07;98441.00;105783;1252;61140;-27
2024/01/01 01:40:00;;;;;;;6.10;3.50;;;;;;;4.97;70.86;98438.41;105512;1258;61107;-27
2024/01/01 01:42:28;;;;;;;5.50;3.30;;;;;;;4.92;70.59;98439.11;105857;1253;72778;-27
2024/01/01 01:44:54;;;;;;;4.60;3.10;;;;;;;4.77;70.96;98435.11;105672;1254;74300;-27
2024/01/01 01:47:25;;;;;;;5.10;2.90;;;;;;;4.60;71.42;98424.42;105881;1253;73237;-27
2024/01/01 01:49:52;;;;;;;7.40;3.70;;;;;;;4.41;72.07;98418.46;105510;1254;61157;-27
2024/01/01 01:52:18;;;;;;;5.80;3.50;;;;;;;4.20;72.85;98417.89;105748;1255;61163;-27
2024/01/01 01:54:45;;;;;;;6.30;3.60;;;;;;;4.57;72.57;98413.25;105874;1253;73811;-27
2024/01/01 01:57:14;;;;;;;8.00;3.90;;;;;;;5.06;70.74;98410.83;105771;1255;74492;-26
2024/01/01 01:59:44;;;;;;;5.40;3.20;;;;;;;5.10;70.21;98405.58;105499;1253;73259;-27
2024/01/01 02:02:11;;;;;;;7.60;3.10;;;;;;;4.92;70.64;98397.31;105649;1253;61147;-27
2024/01/01 02:04:38;;;;;;;8.10;4.10;;;;;;;4.74;71.13;98392.01;105915;1256;61192;-27
2024/01/01 02:07:05;;;;;;;7.50;4.30;;;;;;;4.60;71.40;98390.90;105738;1253;73921;-27
2024/01/01 02:09:32;;;;;;;8.20;5.00;;;;;;;4.44;71.93;98386.40;105864;1256;74151;-27
2024/01/01 02:11:59;;;;;;;6.30;3.50;;;;;;;4.33;72.51;98386.29;105853;1256;72506;-27
2024/01/01 02:14:26;;;;;;;8.70;4.30;;;;;;;4.98;71.34;98387.65;105685;1254;61244;-26
2024/01/01 02:16:53;;;;;;;10.00;4.40;;;;;;;5.42;69.78;98385.27;105669;1251;61093;-27
2024/01/01 02:19:24;;;;;;;5.80;3.20;;;;;;;5.46;69.01;98385.88;105651;1253;73623;-26
2024/01/01 02:21:53;;;;;;;;;;;;;;;5.24;69.47;98382.23;105539;1257;74389;-27
2024/01/01 02:24:21;;;;;;;6.60;3.60;;;;;;;5.03;70.04;98380.55;105666;1253;73201;-27
2024/01/01 02:26:48;;;;;;;6.90;4.00;;;;;;;4.80;70.50;98376.09;105692;1253;61143;-27
2024/01/01 02:29:15;;;;;;;7.10;3.60;;;;;;;4.61;70.99;98366.94;105919;1251;61176;-27
2024/01/01 02:31:42;;;;;;;9.10;4.50;;;;;;;4.41;71.78;98363.62;105899;1253;73675;-27
2024/01/01 02:34:09;;;;;;;9.70;4.50;;;;;;;4.34;72.70;98367.16;105712;1254;74266;-27
2024/01/01 02:36:37;;;;;;;7.10;4.00;;;;;;;5.08;71.03;98364.25;105933;1253;73194;-26
2024/01/01 02:39:05;;;;;;;9.70;4.00;;;;;;;5.37;69.41;98354.96;105684;1261;61311;-26
2024/01/01 02:41:32;;;;;;;5.20;3.20;;;;;;;5.32;69.12;98348.48;105849;1257;61172;-27
2024/01/01 02:44:00;;;;;;;9.90;5.10;;;;;;;5.08;69.46;98352.17;105461;1253;74381;-27
2024/01/01 02:46:27;;;;;;;10.10;5.00;;;;;;;4.87;70.03;98348.15;105680;1253;74218;-27
2024/01/01 02:48:54;;;;;;;7.80;4.70;;;;;;;4.69;70.50;98345.02;105582;1252;72523;-27
2024/01/01 02:51:20;;;;;;;9.20;4.60;;;;;;;4.49;71.12;98345.34;105735;1252;61103;-27
2024/01/01 02:53:47;;;;;;;5.60;3.80;;;;;;;4.31;72.05;98342.98;105485;1255;61161;-27
2024/01/01 02:56:15;;;;;;;4.40;2.90;;;;;;;4.79;71.46;98341.61;105730;1253;73700;-27
2024/01/01 02:58:43;;;;;;;5.40;4.00;;;;;;;5.24;69.77;98335.73;105645;1255;74213;-26
2024/01/01 03:04:55;;;;;;;6.10;3.60;;;;;;;4.90;69.94;98321.63;105723;1253;61047;-27
2024/01/01 03:07:22;;;;;;;6.90;3.90;;;;;;;4.69;70.65;98323.39;105728;1252;61363;-27
2024/01/01 03:09:49;;;;;;;9.20;5.50;;;;;;;4.51;71.32;98328.71;105890;1255;73772;-27
2024/01/01 03:12:16;;;;;;;7.30;4.30;;;;;;;4.32;72.13;98325.18;105764;1253;74298;-27
2024/01/01 03:14:45;;;;;;;5.70;3.20;;;;;;;4.29;72.95;98319.36;105890;1253;72441;-27
2024/01/01 03:17:12;;;;;;;6.30;3.40;;;;;;;4.92;71.25;98311.34;105686;1254;61007;-26
2024/01/01 03:19:39;;;;;;;6.30;3.90;;;;;;;5.20;70.05;98308.67;105763;1256;61278;-27
2024/01/01 03:22:06;;;;;;;8.10;4.90;;;;;;;5.16;69.73;98303.61;105817;1252;73866;-27
2024/01/01 03:24:33;;;;;;;5.90;4.20;;;;;;;4.96;70.02;98294.22;105747;1253;74365;-27
2024/01/01 03:27:00;;;;;;;7.80;4.80;;;;;;;4.73;70.79;98295.23;105713;1257;73013;-27
2024/01/01 03:29:26;;;;;;;5.90;3.70;;;;;;;4.54;71.47;98287.80;105750;1253;61072;-27
2024/01/01 03:31:53;;;;;;;8.60;5.60;;;;;;;4.33;72.30;98287.53;105895;1256;61241;-27
2024/01/01 03:34:21;;;;;;;7.10;4.50;;;;;;;4.42;72.74;98277.94;105690;1253;73807;-27
2024/01/01 03:36:49;;;;;;;5.30;2.70;;;;;;;4.98;71.18;98278.70;105848;1253;74218;-27
2024/01/01 03:39:16;;;;;;;8.50;5.00;;;;;;;5.08;70.25;98272.21;105848;1252;72509;-27
2024/01/01 03:41:43;;;;;;;7.90;4.60;;;;;;;4.99;70.31;98275.60;105678;1251;61140;-27
2024/01/01 03:44:10;;;;;;;12.60;5.10;;;;;;;4.79;70.73;98269.06;105692;1258;61094;-27
2024/01/01 03:46:37;;;;;;;9.40;5.00;;;;;;;4.60;71.45;98273.81;105940;1253;73608;-27
2024/01/01 03:49:04;;;;;;;6.20;3.90;;;;;;;4.43;72.24;98268.59;105817;1253;74037;-27
2024/01/01 03:51:31;;;;;;;6.00;3.80;;;;;;;4.24;72.85;98266.60;105633;1253;73179;-27
2024/01/01 03:53:59;;;;;;;8.10;5.20;;;;;;;4.67;72.35;98257.80;105659;1253;61619;-26
2024/01/01 03:56:25;;;;;;;12.60;4.50;;;;;;;5.09;70.67;98250.23;105646;1257;61187;-27
2024/01/01 03:58:53;;;;;;;10.00;5.00;;;;;;;5.15;70.15;98244.16;105831;1253;73865;-27
2024/01/01 04:01:21;;;;;;;9.50;5.50;;;;;;;5.03;70.30;98251.40;105735;1258;74210;-27
2024/01/01 04:03:48;;;;;;;7.80;4.50;;;;;;;4.88;70.50;98261.70;105631;1253;71261;-27
2024/01/01 04:06:15;;;;;;;8.40;4.90;;;;;;;4.67;70.97;98264.58;105949;1252;61141;-27
2024/01/01 04:08:42;;;;;;;6.00;4.60;;;;;;;4.56;71.46;98262.89;105880;1256;61122;-27
2024/01/01 04:11:09;;;;;;;6.80;3.80;;;;;;;4.43;71.94;98258.60;105842;1251;73951;-26
2024/01/01 04:13:36;;;;;;;6.80;3.90;;;;;;;4.87;71.65;98260.41;105908;1253;74351;-28
2024/01/01 04:16:03;;;;;;;7.60;4.00;;;;;;;5.37;69.77;98263.42;105863;1253;72740;-26
2024/01/01 04:18:30;;;;;;;7.70;4.90;;;;;;;5.48;69.18;98263.80;105707;1253;61360;-26
2024/01/01 04:20:57;;;;;;;8.30;4.80;;;;;;;5.33;69.04;98262.66;105924;1252;61161;-26
2024/01/01 04:23:24;;;;;;;6.90;4.10;;;;;;;5.14;69.75;98262.95;105920;1253;73547;-27
2024/01/01 04:25:51;;;;;;;7.50;3.70;;;;;;;4.85;70.60;98261.61;105876;1253;74383;-27
2024/01/01 04:28:18;;;;;;;10.10;5.90;;;;;;;4.58;71.82;98263.93;105638;1253;72476;-27
2024/01/01 04:30:44;;;;;;;8.20;4.50;;;;;;;4.50;72.64;98259.88;105535;1253;61074;-27
2024/01/01 04:33:11;;;;;;;10.20;5.20;;;;;;;5.03;72.31;98248.08;105697;1256;61137;-29
2024/01/01 04:35:40;;;;;;;9.10;4.90;;;;;;;5.65;70.83;98247.77;105723;1253;73681;-29
2024/01/01 04:38:07;;;;;;;9.30;4.70;;;;;;;5.70;70.02;98247.38;105756;1254;74378;-29
2024/01/01 04:40:34;;;;;;;8.30;5.30;;;;;;;5.54;70.26;98242.08;105829;1253;72620;-30
2024/01/01 04:43:01;;;;;;;7.80;5.10;;;;;;;5.28;71.25;98236.33;105675;1253;61131;-29
2024/01/01 04:45:28;;;;;;;8.00;5.10;;;;;;;5.00;71.78;98234.56;105824;1254;61152;-29
2024/01/01 04:47:55;;;;;;;9.70;5.70;;;;;;;4.76;72.77;98234.50;105849;1253;72287;-29
2024/01/01 04:50:22;;;;;;;7.00;3.70;;;;;;;4.55;73.76;98233.77;105864;1254;74354;-29
2024/01/01 04:52:49;;;;;;;8.80;5.20;;;;;;;4.98;73.62;98225.89;105685;1252;72633;-29
2024/01/01 04:55:16;;;;;;;8.90;4.70;;;;;;;5.58;72.21;98221.08;105727;1251;61150;-29
2024/01/01 04:57:43;;;;;;;8.50;4.60;;;;;;;5.64;71.65;98219.06;105881;1255;61051;-29
2024/01/01 05:00:11;;;;;;;10.00;5.80;;;;;;;5.42;72.04;98208.16;105869;1253;73682;-29
2024/01/01 05:02:38;;;;;;;8.40;5.40;;;;;;;5.12;72.78;98207.91;105689;1258;74378;-29
2024/01/01 05:05:05;;;;;;;9.80;5.50;;;;;;;4.83;73.92;98204.30;105642;1252;72633;-29
2024/01/01 05:07:32;;;;;;;8.20;5.40;;;;;;;4.55;75.11;98197.45;105622;1253;61097;-29
2024/01/01 05:09:59;;;;;;;8.30;4.30;;;;;;;4.35;76.09;98199.69;105669;1253;61561;-29
2024/01/01 05:12:26;;;;;;;9.20;4.30;;;;;;;4.81;75.91;98198.73;105798;1256;73912;-28
2024/01/01 05:14:53;;;;;;;8.50;4.80;;;;;;;5.34;74.04;98203.36;105749;1254;74590;-28
2024/01/01 05:17:20;;;;;;;8.30;5.20;;;;;;;5.39;73.45;98204.77;105896;1253;71710;-28
2024/01/01 05:19:50;;;;;;;8.20;4.50;;;;;;;5.18;73.93;98206.07;105724;1253;61258;-28
2024/01/01 05:22:17;;;;;;;10.30;4.80;;;;;;;4.91;74.93;98207.67;105851;1251;61144;-28
2024/01/01 05:24:44;;;;;;;8.80;5.20;;;;;;;4.64;75.73;98208.39;105929;1253;73406;-28
2024/01/01 05:27:11;;;;;;;8.40;4.10;;;;;;;4.38;76.89;98204.48;105904;1253;74916;-28
2024/01/01 05:29:41;;;;;;;9.30;5.40;;;;;;;4.71;76.94;98191.20;105924;1256;72665;-29
2024/01/01 05:32:08;;;;;;;11.00;6.30;;;;;;;5.17;75.47;98192.36;105673;1253;61215;-28
2024/01/01 05:35:03;;;;;;;9.80;6.00;;;;;;;5.11;75.08;98192.81;103480;1286;600213;-27
2024/01/01 05:37:31;;;;;;;9.60;6.20;;;;;;;4.99;75.26;98194.23;104894;1267;61119;-27
2024/01/01 05:39:59;;;;;;;9.60;6.50;;;;;;;4.75;76.00;98191.42;105069;1264;61103;-29
2024/01/01 05:42:28;;;;;;;11.00;5.90;;;;;;;4.53;76.73;98186.80;104881;1270;72234;-30
2024/01/01 05:44:55;;;;;;;6.90;4.90;;;;;;;4.37;77.75;98177.56;104933;1268;74339;-30
2024/01/01 05:47:23;;;;;;;6.70;4.70;;;;;;;4.93;76.73;98165.38;104886;1269;72701;-30
2024/01/01 05:57:30;;;;;;;9.50;5.90;;;;;;;4.69;76.58;98164.68;102737;1294;599076;-31
2024/01/01 05:59:58;;;;;;;6.30;3.70;;;;;;;4.48;77.14;98173.55;105095;1266;61152;-30
2024/01/01 06:02:26;;;;;;;9.30;4.70;;;;;;;4.29;78.17;98162.27;104870;1270;61142;-31
2024/01/01 06:04:54;;;;;;;9.40;5.40;;;;;;;4.82;77.28;98166.88;104866;1266;72194;-31
2024/01/01 06:07:21;;;;;;;8.40;5.80;;;;;;;5.15;75.85;98164.48;104889;1264;73029;-31
2024/01/01 06:17:25;;;;;;;10.40;5.90;;;;;;;4.39;78.20;98152.88;102685;1291;599453;-28
2024/01/01 06:19:53;;;;;;;6.80;4.50;;;;;;;4.46;78.83;98158.05;104879;1266;61197;-28
2024/01/01 06:22:21;;;;;;;11.00;6.40;;;;;;;5.13;76.82;98157.56;104901;1266;61126;-28
2024/01/01 06:24:48;;;;;;;9.90;6.00;;;;;;;5.33;75.46;98155.40;105092;1265;72192;-28
2024/01/01 06:34:58;;;;;;;13.40;6.80;;;;;;;4.63;77.32;98139.83;102451;1292;599831;-29
2024/01/01 06:37:26;;;;;;;7.90;5.30;;;;;;;4.42;78.13;98133.60;104801;1271;61146;-29
2024/01/01 06:39:54;;;;;;;8.20;5.50;;;;;;;4.89;77.93;98130.91;104885;1267;61072;-28
2024/01/01 06:49:58;;;;;;;11.00;5.90;;;;;;;5.14;76.11;98120.84;102716;1293;600114;-29
2024/01/01 06:52:26;;;;;;;9.60;6.90;;;;;;;4.90;76.62;98120.39;105053;1269;61208;-30
2024/01/01 07:02:33;;;;;;;8.80;5.40;;;;;;;5.71;75.22;98109.96;102724;1290;599326;-28
2024/01/01 07:05:01;;;;;;;8.70;6.10;;;;;;;5.52;75.12;98107.73;105009;1271;61094;-28
2024/01/01 07:07:29;;;;;;;11.60;6.80;;;;;;;5.30;75.63;98110.90;104900;1272;61126;-28
2024/01/01 07:09:57;;;;;;;9.40;6.30;;;;;;;5.09;76.25;98114.20;105083;1269;70938;-27
2024/01/01 07:20:10;;;;;;;10.40;6.50;;;;;;;5.84;74.60;98102.02;102679;1294;599044;-29
2024/01/01 07:22:38;;;;;;;10.70;6.90;;;;;;;5.63;74.65;98110.70;104857;1267;61010;-30
2024/01/01 07:25:09;;;;;;;11.50;6.90;;;;;;;5.43;75.34;98116.83;104880;1270;61740;-31
2024/01/01 07:27:36;;;;;;;9.70;6.30;;;;;;;5.18;75.87;98122.46;105535;1256;75197;-30
2024/01/01 07:30:05;;;;;;;9.80;5.70;;;;;;;4.92;76.88;98112.00;105643;1259;73158;-31
2024/01/01 07:32:34;;;;;;;9.80;5.70;;;;;;;5.31;76.97;98111.52;105581;1257;72694;-30
2024/01/01 07:42:42;;;;;;;9.20;5.80;;;;;;;5.32;76.15;98098.20;102713;1292;599336;-29
2024/01/01 07:52:15;;;;;;;7.60;4.70;;;;;;;5.93;75.63;98100.31;103218;1287;599747;-28
2024/01/01 07:54:43;;;;;;;9.10;6.10;;;;;;;5.95;74.62;98098.05;104861;1270;61187;-30
2024/01/01 07:57:10;;;;;;;11.10;6.60;;;;;;;5.81;74.62;98097.77;105125;1270;61189;-30
2024/01/01 07:59:38;;;;;;;10.30;6.60;;;;;;;5.62;75.04;98095.65;105169;1267;71018;-30
2024/01/01 08:02:06;;;;;;;10.90;6.70;;;;;;;5.43;75.61;98107.19;104891;1269;73460;-30
2024/01/01 08:12:10;;;;;;;10.40;5.60;;;;;;;6.46;74.32;98118.48;102768;1289;600098;-27
2024/01/01 08:14:40;;;;;;;10.60;6.40;;;;;;;6.68;73.27;98107.76;105047;1267;61126;-28
2024/01/01 08:17:08;;;;;;;9.80;6.20;;;;;;;6.52;73.12;98105.94;104903;1271;61115;-30
2024/01/01 08:19:36;;;;;;;11.70;7.00;;;;;;;6.22;73.46;98106.71;104941;1270;70982;-29
2024/01/01 08:22:04;;;;;;;9.20;6.60;;;;;;;5.90;74.22;98102.26;105015;1270;74311;-28
2024/01/01 08:24:32;;;;;;;7.90;6.60;;;;;;;5.57;75.34;98109.59;104850;1269;72651;-28
2024/01/01 08:26:59;;;;;;;9.90;5.70;;;;;;;5.31;76.31;98110.70;105014;1270;176515;-29
2024/01/01 08:29:27;;;;;;;12.50;7.80;;;;;;;5.68;76.18;98106.46;105127;1270;61256;-29
2024/01/01 08:31:56;;;;;;;11.10;7.70;;;;;;;6.09;74.88;98101.17;105122;1264;71047;-29
2024/01/01 08:42:07;;;;;;;10.60;6.60;;;;;;;5.37;77.22;98086.84;102694;1294;600126;-30
2024/01/01 08:44:35;;;;;;;10.70;6.70;;;;;;;5.13;78.14;98086.36;104776;1272;61248;-30
2024/01/01 08:47:03;;;;;;;11.70;6.20;;;;;;;5.65;78.00;98074.91;104845;1266;61059;-30
2024/01/01 08:49:31;;;;;;;16.20;7.70;;;;;;;6.14;76.26;98071.17;104769;1266;71060;-30
2024/01/01 08:51:59;;;;;;;12.20;7.90;;;;;;;6.17;75.59;98068.65;104836;1267;73085;-30
2024/01/01 08:54:27;;;;;;;12.00;8.20;;;;;;;5.97;76.06;98070.70;104870;1266;71472;-30
2024/01/01 08:56:54;;;;;;;12.00;7.60;;;;;;;5.76;76.84;98069.55;104697;1267;201330;-31
2024/01/01 08:59:22;;;;;;;12.00;7.60;;;;;;;5.56;77.28;98065.27;105051;1264;61218;-31
2024/01/01 09:01:50;;;;;;;8.40;5.60;;;;;;;5.37;78.17;98066.83;104849;1266;71458;-31
2024/01/01 09:04:17;;;;;;;10.50;6.80;;;;;;;5.90;77.90;98061.57;104861;1264;74327;-30
2024/01/01 09:06:45;;;;;;;12.20;7.70;;;;;;;6.46;75.77;98055.90;105138;1266;74099;-30
2024/01/01 09:09:13;;;;;;;11.60;7.20;;;;;;;6.54;75.19;98052.51;105129;1264;61126;-30
2024/01/01 09:11:40;;;;;;;10.00;7.00;;;;;;;6.36;75.78;98050.29;104997;1269;61583;-30
2024/01/01 09:14:08;;;;;;;13.10;8.00;;;;;;;6.15;75.96;98051.23;105007;1269;71920;-30
2024/01/01 09:16:36;;;;;;;10.30;6.90;;;;;;;5.87;76.89;98049.29;105064;1264;74405;-30
2024/01/01 09:19:05;;;;;;;8.50;5.30;;;;;;;5.61;77.94;98044.39;105013;1266;71377;-30
2024/01/01 09:21:32;;;;;;;12.20;6.60;;;;;;;6.01;77.56;98039.02;105032;1264;61175;-29
2024/01/01 09:24:03;;;;;;;8.40;6.20;;;;;;;6.45;76.17;98033.02;104959;1264;61166;-29
2024/01/01 09:26:30;;;;;;;10.00;6.90;;;;;;;6.39;75.57;98029.36;104898;1264;73050;-29
2024/01/01 09:28:58;;;;;;;10.20;7.10;;;;;;;6.16;75.97;98028.28;104960;1264;73127;-30
2024/01/01 09:31:27;;;;;;;11.40;8.20;;;;;;;5.85;77.08;98027.03;104898;1267;71427;-29
2024/01/01 09:33:55;;;;;;;11.50;5.40;;;;;;;5.57;78.12;98017.63;105062;1264;61180;-30
2024/01/01 09:43:59;;;;;;;11.60;7.50;;;;;;;5.82;77.44;98010.55;102652;1292;599941;-27
2024/01/01 09:46:32;;;;;;;12.50;8.20;;;;;;;5.77;77.87;98008.66;104823;1267;61212;-30
2024/01/01 09:49:01;;;;;;;7.10;5.20;;;;;;;5.59;78.18;97999.92;104822;1267;61068;-30
2024/01/01 09:51:29;;;;;;;11.30;7.00;;;;;;;6.04;77.53;98000.92;104828;1267;70959;-30
2024/01/01 09:54:00;;;;;;;10.80;6.80;;;;;;;6.38;76.14;97994.62;104825;1266;74886;-30
2024/01/01 09:56:28;;;;;;;12.60;7.30;;;;;;;6.39;75.90;97994.23;104678;1273;146046;-30
2024/01/01 09:58:59;;;;;;;10.80;7.60;;;;;;;6.07;76.24;97990.16;105049;1264;61234;-30
2024/01/01 10:01:28;;;;;;;10.90;5.90;;;;;;;5.83;76.99;97982.40;104839;1269;61170;-31
2024/01/01 10:04:03;;;;;;;12.70;7.70;;;;;;;5.84;78.46;97979.56;104964;1264;71050;-30
2024/01/01 10:06:33;;;;;;;8.10;5.40;;;;;;;6.45;76.42;97974.98;104899;1269;74457;-30
2024/01/01 10:09:08;;;;;;;15.40;9.30;;;;;;;6.39;75.64;97971.33;105545;1257;71409;-30
2024/01/01 10:11:42;;;;;;;13.70;8.90;;;;;;;6.38;75.91;97970.83;105620;1257;61111;-30
2024/01/01 10:21:47;;;;;;;8.40;5.60;;;;;;;6.27;76.60;97964.83;102741;1289;599891;-28
2024/01/01 10:24:16;;;;;;;9.70;6.40;;;;;;;6.23;75.94;97963.14;104736;1273;61212;-31
2024/01/01 10:26:58;;;;;;;14.50;7.50;;;;;;;6.01;76.74;97955.71;104768;1266;61108;-30
2024/01/01 10:29:26;;;;;;;8.20;5.50;;;;;;;5.84;76.92;97946.30;104836;1266;72247;-31
2024/01/01 10:31:54;;;;;;;10.00;6.80;;;;;;;5.62;78.02;97934.77;104736;1267;74131;-30
2024/01/01 10:34:21;;;;;;;10.90;6.40;;;;;;;6.06;77.17;97929.78;104652;1263;220830;-30
2024/01/01 10:36:49;;;;;;;8.10;5.70;;;;;;;6.14;76.21;97928.44;105073;1263;61723;-30
2024/01/01 10:46:58;;;;;;;5.50;3.10;;;;;;;5.88;78.21;97918.81;102771;1295;599356;-28
2024/01/01 10:49:29;;;;;;;9.40;6.10;;;;;;;6.23;76.36;97911.20;104846;1267;61116;-30
2024/01/01 10:52:28;;;;;;;11.10;5.90;;;;;;;6.19;76.10;97912.38;104852;1271;61189;-30
2024/01/01 10:55:18;;;;;;;13.20;7.30;;;;;;;6.12;76.32;97914.67;104902;1267;70995;-30
2024/01/01 10:57:58;;;;;;;10.20;6.10;;;;;;;5.95;77.02;97904.30;105219;1263;73175;-30
2024/01/01 11:00:32;;;;;;;12.90;8.20;;;;;;;5.76;78.15;97905.95;105221;1257;201280;-29
2024/01/01 11:03:00;;;;;;;14.30;6.40;;;;;;;6.26;77.23;97904.27;105498;1257;61272;-30
2024/01/01 11:05:34;;;;;;;12.80;8.00;;;;;;;6.50;76.01;97898.00;105581;1257;61202;-30
2024/01/01 11:08:03;;;;;;;14.20;8.90;;;;;;;6.43;76.06;97893.55;105375;1262;72284;-30
2024/01/01 11:10:38;;;;;;;14.70;9.40;;;;;;;6.32;76.22;97890.00;105115;1258;74758;-30
2024/01/01 11:13:32;;;;;;;13.10;8.40;;;;;;;6.05;76.90;97889.23;105221;1264;71416;-30
2024/01/01 11:16:00;;;;;;;10.60;6.80;;;;;;;6.21;77.22;97883.06;105480;1257;61179;-30
2024/01/01 11:18:37;;;;;;;13.70;8.50;;;;;;;6.69;75.04;97881.02;105495;1257;61072;-29
2024/01/01 11:21:25;;;;;;;9.20;5.50;;;;;;;6.88;74.57;97880.51;105460;1262;72974;-30
2024/01/01 11:23:52;;;;;;;13.30;5.50;;;;;;;6.61;74.30;97875.70;105270;1257;74377;-29
2024/01/01 11:26:40;;;;;;;10.20;6.40;;;;;;;6.17;75.47;97876.34;105258;1257;71441;-30
2024/01/01 11:29:17;;;;;;;11.40;7.10;;;;;;;5.87;76.96;97879.48;105393;1257;61154;-30
2024/01/01 11:31:45;;;;;;;15.60;8.40;;;;;;;6.20;76.87;97874.23;105585;1257;61000;-29
2024/01/01 11:34:16;;;;;;;11.60;6.40;;;;;;;6.72;75.35;97866.83;105589;1256;72987;-30
2024/01/01 11:36:53;;;;;;;9.40;6.50;;;;;;;6.65;74.50;97862.54;105548;1262;74298;-28
2024/01/01 11:39:24;;;;;;;16.00;8.40;;;;;;;6.34;74.99;97863.47;105425;1258;71414;-30
2024/01/01 11:41:55;;;;;;;12.00;7.80;;;;;;;5.96;76.28;97861.15;105213;1256;61185;-30
2024/01/01 11:44:25;;;;;;;11.80;7.00;;;;;;;5.89;76.82;97861.88;105332;1258;61122;-30
2024/01/01 11:46:56;;;;;;;6.50;5.00;;;;;;;6.02;77.20;97860.84;105539;1263;71789;-29
2024/01/01 11:49:26;;;;;;;14.20;7.30;;;;;;;6.56;75.02;97855.06;105220;1257;74068;-29
2024/01/01 11:51:55;;;;;;;10.20;6.70;;;;;;;6.51;74.27;97852.41;105415;1257;71359;-29
2024/01/01 11:54:26;;;;;;;10.20;6.80;;;;;;;6.23;75.31;97855.33;105198;1261;61181;-29
2024/01/01 11:56:59;;;;;;;13.40;7.70;;;;;;;6.04;76.67;97854.80;105248;1260;61189;-29
2024/01/01 11:59:28;;;;;;;8.10;5.30;;;;;;;5.95;76.46;97846.75;105115;1264;73184;-29
2024/01/01 12:01:55;;;;;;;11.60;7.50;;;;;;;6.02;76.69;97847.75;105158;1258;74298;-29
2024/01/01 12:04:23;;;;;;;11.60;6.10;;;;;;;6.47;75.33;97846.33;105333;1257;71221;-29
2024/01/01 12:06:51;;;;;;;8.90;3.90;;;;;;;6.43;74.49;97845.83;105426;1257;61205;-29
2024/01/01 12:15:51;;;;;;;7.90;4.20;;;;;;;6.00;76.85;97829.81;102668;1293;600021;-27
2024/01/01 12:26:04;;;;;;;12.30;7.40;;;;;;;6.36;75.09;97809.65;103481;1283;599353;-27
2024/01/01 12:28:32;;;;;;;7.30;4.50;;;;;;;6.17;75.84;97808.95;104903;1264;61183;-27
2024/01/01 12:31:00;;;;;;;11.60;7.10;;;;;;;6.05;76.53;97805.46;104834;1270;61205;-27
2024/01/01 12:33:27;;;;;;;11.90;7.10;;;;;;;6.62;74.64;97806.93;105047;1265;70890;-29
2024/01/01 12:35:56;;;;;;;12.80;8.00;;;;;;;6.82;73.52;97801.96;105068;1264;73129;-29
2024/01/01 12:38:23;;;;;;;12.60;8.00;;;;;;;6.72;73.57;97798.73;104728;1264;425975;-28
2024/01/01 12:40:51;;;;;;;9.50;6.40;;;;;;;6.57;74.07;97794.82;105240;1264;61118;-28
2024/01/01 12:43:19;;;;;;;11.00;8.00;;;;;;;6.36;74.68;97793.14;105191;1263;61128;-29
2024/01/01 12:53:27;;;;;;;12.10;7.70;;;;;;;6.66;74.05;97778.32;102695;1292;600288;-28
2024/01/01 12:55:55;;;;;;;12.10;6.30;;;;;;;6.63;74.37;97780.13;104846;1270;61165;-29
2024/01/01 12:58:22;;;;;;;13.90;8.40;;;;;;;6.45;74.78;97780.67;104850;1267;61164;-29
2024/01/01 13:00:50;;;;;;;11.30;5.50;;;;;;;6.29;75.18;97778.34;104805;1272;70985;-29
2024/01/01 13:03:18;;;;;;;14.50;8.10;;;;;;;6.56;75.24;97778.36;104814;1272;74326;-26
2024/01/01 13:13:26;;;;;;;13.00;8.10;;;;;;;6.75;73.96;97772.20;102574;1292;600161;-28
2024/01/01 13:22:16;;;;;;;13.80;7.70;;;;;;;7.29;74.12;97760.54;102662;1293;600250;-26
2024/01/01 13:24:44;;;;;;;14.60;9.30;;;;;;;7.47;72.95;97759.96;105067;1269;61078;-26
2024/01/01 13:27:18;;;;;;;10.30;7.40;;;;;;;7.29;72.78;97763.39;104739;1271;61067;-28
2024/01/01 13:29:46;;;;;;;13.20;7.70;;;;;;;7.04;73.36;97770.56;104795;1267;72235;-29
2024/01/01 13:32:14;;;;;;;13.50;7.00;;;;;;;6.78;74.07;97765.11;104835;1267;74320;-29
2024/01/01 13:34:42;;;;;;;12.30;8.40;;;;;;;6.57;74.66;97760.88;105534;1258;71455;-29
2024/01/01 13:37:09;;;;;;;11.40;6.70;;;;;;;6.39;75.35;97751.61;105375;1260;61622;-29
2024/01/01 13:39:38;;;;;;;10.40;6.60;;;;;;;6.92;74.97;97755.42;105897;1253;61103;-28
2024/01/01 13:42:06;;;;;;;12.80;7.50;;;;;;;7.38;73.31;97752.96;105735;1257;70099;-29
2024/01/01 13:44:34;;;;;;;11.70;7.90;;;;;;;7.38;72.71;97749.58;105842;1254;74322;-29
2024/01/01 13:47:03;;;;;;;11.70;7.70;;;;;;;7.20;72.88;97743.16;105683;1259;71433;-28
2024/01/01 13:49:34;;;;;;;14.90;8.30;;;;;;;6.97;73.49;97743.42;105701;1255;61267;-28
2024/01/01 13:52:02;;;;;;;11.90;7.70;;;;;;;6.73;73.72;97742.45;105658;1257;61747;-28
2024/01/01 14:02:07;;;;;;;11.70;6.60;;;;;;;7.43;73.05;97731.29;102695;1292;599379;-26